Time;durP1;ratioP1;P1;durP2;ratioP2;P2;SDS_P1;SDS_P2;PMS_P1;PMS_P2;Temp;Humidity;BMP_temperature;BMP_pressure;BME280_temperature;BME280_humidity;BME280_pressure;Samples;Min_cycle;Max_cycle;Signal;HPM_P1;HPM_P2
2022/05/10 00:07:08;;;;;;;9.93;4.40;;;;;;;13.59;63.90;99890.00;5469155;22;19714050;-91
2022/05/10 00:10:11;;;;;;;8.90;4.37;;;;;;;13.32;65.13;99877.88;6266828;23;20171;-91
2022/05/10 00:13:30;;;;;;;8.27;4.50;;;;;;;13.31;65.09;99892.25;6159767;23;20277;-92
2022/05/10 00:16:33;;;;;;;9.27;4.13;;;;;;;8.96;65.23;99186.34;6127169;23;20166;-93
2022/05/10 00:19:37;;;;;;;5.63;4.00;;;;;;;13.14;65.60;99888.16;6061451;23;20156;-91
2022/05/10 00:22:37;;;;;;;7.63;4.13;;;;;;;12.14;66.26;99761.94;6057862;23;20187;-90
2022/05/10 00:25:41;;;;;;;6.53;4.30;;;;;;;9.19;65.94;99256.47;5995461;24;20190;-92
2022/05/10 00:31:44;;;;;;;6.67;4.00;;;;;;;9.09;65.38;99234.97;5972925;24;20219;-93
2022/05/10 00:34:24;;;;;;;7.90;3.90;;;;;;;8.56;65.82;99143.28;5969836;24;20198;-92
2022/05/10 00:37:18;;;;;;;8.37;4.07;;;;;;;8.75;65.46;99178.66;5974645;24;20143;-91
2022/05/10 00:40:27;;;;;;;;;;;;;;;;;;;;;
2022/05/10 00:43:19;;;;;;;6.40;3.80;;;;;;;12.92;64.48;99880.41;5870709;24;20162;-91
2022/05/10 00:46:42;;;;;;;6.77;4.00;;;;;;;8.82;64.87;99205.91;5843675;24;20154;-91
2022/05/10 00:49:56;;;;;;;7.97;3.90;;;;;;;11.75;65.36;99690.06;5842752;24;20154;-93
2022/05/10 00:53:04;;;;;;;7.33;3.97;;;;;;;12.76;66.21;99867.84;5801170;24;20150;-91
2022/05/10 00:55:53;;;;;;;8.43;3.87;;;;;;;9.08;66.68;99255.09;5807275;24;20183;-92
2022/05/10 00:58:39;;;;;;;6.20;4.23;;;;;;;12.66;68.23;99893.69;5844686;24;20157;-92
2022/05/10 01:01:10;;;;;;;6.77;3.93;;;;;;;8.22;68.53;99153.34;5847745;24;20222;-93
2022/05/10 01:04:12;;;;;;;8.47;4.20;;;;;;;12.75;68.06;99891.50;5849902;24;20230;-94
2022/05/10 01:07:20;;;;;;;12.00;4.40;;;;;;;12.63;68.64;99876.66;5887038;24;20204;-91
2022/05/10 01:10:15;;;;;;;6.80;4.20;;;;;;;8.66;68.95;99229.56;5883434;24;20161;-91
2022/05/10 01:12:59;;;;;;;7.43;4.43;;;;;;;12.65;68.54;99879.22;5886671;24;20161;-91
2022/05/10 01:18:44;;;;;;;8.97;4.87;;;;;;;9.61;68.07;99396.56;5936010;24;20160;-92
2022/05/10 01:21:24;;;;;;;11.57;5.07;;;;;;;10.61;71.27;99564.03;5962224;24;20219;-91
2022/05/10 01:24:44;;;;;;;10.83;4.97;;;;;;;8.59;70.78;99230.06;6000610;23;20153;-91
2022/05/10 01:28:06;;;;;;;11.00;5.33;;;;;;;12.25;72.46;99864.78;5964888;24;20166;-91
2022/05/10 01:30:58;;;;;;;11.63;5.00;;;;;;;12.09;74.38;99890.28;5996793;23;20213;-92
2022/05/10 01:33:52;;;;;;;9.73;5.43;;;;;;;12.07;74.03;99855.50;6018555;23;20242;-91
2022/05/10 01:40:36;;;;;;;9.23;5.53;;;;;;;12.07;75.09;99858.03;5974702;24;20191;-90
2022/05/10 01:44:00;;;;;;;12.03;6.10;;;;;;;7.84;73.69;99154.00;5944352;24;20219;-92
2022/05/10 01:46:35;;;;;;;16.43;8.03;;;;;;;8.12;73.93;99205.00;5887060;24;20169;-91
2022/05/10 01:49:54;;;;;;;18.83;8.33;;;;;;;8.68;74.77;99328.91;5880899;24;20169;-91
2022/05/10 01:52:36;;;;;;;17.53;8.20;;;;;;;9.92;75.36;99557.38;5940487;24;20164;-89
2022/05/10 01:55:21;;;;;;;16.87;8.20;;;;;;;10.65;76.62;99705.19;5944825;24;20213;-92
2022/05/10 01:57:47;;;;;;;16.47;8.10;;;;;;;7.38;80.39;99274.19;5974704;23;20648;-91
2022/05/10 02:00:20;;;;;;;15.33;8.30;;;;;;;6.78;81.22;99177.75;6018132;23;20347;-92
2022/05/10 02:02:54;;;;;;;16.07;8.20;;;;;;;6.60;81.70;99123.91;5995764;23;20170;-91
2022/05/10 02:09:27;;;;;;;16.93;8.17;;;;;;;10.21;82.12;99737.56;6022111;23;20158;-92
2022/05/10 02:12:35;;;;;;;15.47;8.10;;;;;;;8.52;81.62;99446.63;6000544;23;20164;-89
2022/05/10 02:18:54;;;;;;;17.80;7.47;;;;;;;11.14;81.14;99853.66;6006928;23;20207;-93
2022/05/10 02:22:42;;;;;;;13.07;8.07;;;;;;;11.13;81.29;99851.91;6045180;23;20215;-91
2022/05/10 02:25:47;;;;;;;16.17;8.00;;;;;;;7.36;81.46;99207.75;5966239;24;20159;-91
2022/05/10 02:28:53;;;;;;;13.77;8.30;;;;;;;11.02;83.11;99842.91;5957232;24;20159;-92
2022/05/10 02:35:32;;;;;;;20.83;9.13;;;;;;;11.14;82.37;99840.09;5985501;24;20317;-91
2022/05/10 02:38:33;;;;;;;14.10;8.10;;;;;;;7.40;82.33;99232.31;5962871;24;20202;-91
2022/05/10 02:52:17;;;;;;;;;;;;;;;;;;;;;
2022/05/10 02:55:48;;;;;;;21.37;9.70;;;;;;;10.59;83.85;99844.13;5861909;24;20224;-94
2022/05/10 02:59:20;;;;;;;;;;;;;;;;;;;;;
2022/05/10 03:09:03;;;;;;;18.10;9.07;;;;;;;7.44;88.16;99404.59;5890261;24;20180;-94
2022/05/10 03:11:59;;;;;;;20.23;9.47;;;;;;;5.40;89.37;99055.91;5878605;24;20233;-91
2022/05/10 03:24:40;;;;;;;19.33;9.67;;;;;;;5.98;90.85;99176.56;5063984;28;20514;-92
2022/05/10 03:27:23;;;;;;;15.13;8.27;;;;;;;6.04;88.96;99135.84;5060184;28;20243;-91
2022/05/10 03:29:57;;;;;;;12.03;7.87;;;;;;;6.10;87.92;99142.06;5044005;28;20189;-92
2022/05/10 03:32:26;;;;;;;16.40;8.40;;;;;;;6.36;86.87;99146.94;5021884;28;20231;-91
2022/05/10 03:35:07;;;;;;;15.63;7.77;;;;;;;6.44;85.78;99143.19;4962031;28;20265;-92
2022/05/10 03:37:43;;;;;;;15.40;7.77;;;;;;;10.62;85.67;99839.22;4967355;28;20495;-89
2022/05/10 03:41:22;;;;;;;;;;;;;;;;;;;;;
2022/05/10 03:52:57;;;;;;;22.87;9.80;;;;;;;6.52;89.13;99203.97;5059822;22;20217;-91
2022/05/10 03:55:53;;;;;;;18.70;9.20;;;;;;;10.65;88.47;99845.31;4908702;29;20210;-96
2022/05/10 03:58:34;;;;;;;19.63;8.90;;;;;;;10.66;87.89;99848.69;4892647;29;20198;-92
2022/05/10 04:01:35;;;;;;;19.33;9.33;;;;;;;10.86;87.25;99854.75;4904922;29;20190;-91
2022/05/10 04:04:09;;;;;;;16.07;8.70;;;;;;;8.12;89.22;99438.59;4850738;29;20218;-90
2022/05/10 04:06:40;;;;;;;14.17;8.70;;;;;;;10.37;90.23;99889.38;4848182;29;20246;-90
2022/05/10 04:09:06;;;;;;;15.03;9.40;;;;;;;6.50;93.32;99312.00;4849809;29;20203;-88
2022/05/10 04:11:36;;;;;;;18.57;10.40;;;;;;;9.48;97.51;99862.59;4827560;29;20229;-92
2022/05/10 04:14:05;;;;;;;21.93;10.27;;;;;;;7.46;95.19;99460.94;4826578;29;20211;-93
2022/05/10 04:16:36;;;;;;;19.40;11.23;;;;;;;9.99;94.75;99865.44;4846790;29;20209;-92
2022/05/10 04:19:02;;;;;;;21.07;11.57;;;;;;;5.59;94.16;99116.44;4835350;29;20207;-92
2022/05/10 04:21:31;;;;;;;20.57;11.40;;;;;;;5.59;95.53;99139.91;4817370;29;20201;-92
2022/05/10 04:23:56;;;;;;;22.77;12.63;;;;;;;5.64;96.38;99156.13;4814583;29;20225;-93
2022/05/10 04:26:27;;;;;;;19.83;11.90;;;;;;;10.23;95.00;99854.88;4814406;29;20303;-91
2022/05/10 04:28:54;;;;;;;24.97;14.57;;;;;;;5.98;94.32;99165.66;4815204;29;20201;-93
2022/05/10 04:31:23;;;;;;;26.07;15.30;;;;;;;6.37;93.51;99191.38;4827010;29;20206;-93
2022/05/10 04:33:55;;;;;;;29.30;16.60;;;;;;;10.54;92.74;99861.63;4850375;29;20240;-92
2022/05/10 04:36:29;;;;;;;29.43;17.33;;;;;;;6.42;91.04;99190.03;4845080;29;20276;-93
2022/05/10 04:39:01;;;;;;;32.17;17.77;;;;;;;7.26;90.84;99351.56;4811153;29;20197;-90
2022/05/10 04:41:46;;;;;;;37.33;20.53;;;;;;;7.08;89.49;99254.91;4853366;29;20219;-89
2022/05/10 04:44:40;;;;;;;55.73;36.23;;;;;;;8.05;87.95;99366.81;4853538;29;20183;-92
2022/05/10 04:47:05;;;;;;;32.40;18.03;;;;;;;11.09;87.37;99872.84;4852558;29;20228;-92
2022/05/10 04:49:51;;;;;;;26.83;14.63;;;;;;;8.88;86.84;99481.34;4878907;29;20206;-91
2022/05/10 04:52:17;;;;;;;28.83;13.47;;;;;;;11.41;86.13;99912.41;4885054;29;20238;-91
2022/05/10 04:54:43;;;;;;;24.90;12.53;;;;;;;9.96;85.14;99619.09;4901939;29;20293;-92
2022/05/10 04:57:11;;;;;;;25.63;13.13;;;;;;;7.42;84.33;99160.22;4903880;29;20242;-92
2022/05/10 04:59:45;;;;;;;21.07;12.40;;;;;;;7.70;84.07;99206.22;4904987;29;20230;-90
2022/05/10 05:02:27;;;;;;;22.30;12.97;;;;;;;11.15;83.96;99743.88;4903531;29;20330;-91
2022/05/10 05:05:03;;;;;;;30.07;12.60;;;;;;;8.43;82.88;99225.06;4881169;29;20284;-89
2022/05/10 05:07:33;;;;;;;19.67;10.60;;;;;;;12.28;82.49;99867.47;4903424;29;20201;-91
2022/05/10 05:09:59;;;;;;;19.53;11.00;;;;;;;8.76;80.91;99246.88;4912130;29;20210;-92
2022/05/10 05:12:24;;;;;;;17.43;10.13;;;;;;;10.05;80.65;99473.69;4919754;29;20366;-93
2022/05/10 05:15:06;;;;;;;18.43;9.93;;;;;;;8.75;80.02;99265.34;4953919;29;20378;-87
2022/05/10 05:18:06;;;;;;;16.33;9.50;;;;;;;9.17;77.44;99265.66;4961040;28;20203;-88
2022/05/10 05:24:11;;;;;;;17.97;11.20;;;;;;;8.27;79.10;99174.66;4957431;29;20268;-86
2022/05/10 05:26:46;;;;;;;20.37;10.33;;;;;;;10.37;78.04;99461.69;4951380;29;20536;-89
2022/05/10 05:31:58;;;;;;;23.67;11.13;;;;;;;13.38;75.02;99873.88;5301866;23;20257;-91
2022/05/10 05:34:27;;;;;;;22.63;10.30;;;;;;;9.48;73.43;99195.50;4980055;28;20228;-93
2022/05/10 05:40:32;;;;;;;16.57;10.73;;;;;;;9.95;72.67;99261.66;4834233;29;20184;-94
2022/05/10 05:43:34;;;;;;;13.53;9.17;;;;;;;12.91;73.13;99808.38;4821303;29;20320;-91
2022/05/10 05:46:32;;;;;;;13.60;9.40;;;;;;;9.07;73.76;99142.25;4823289;29;20215;-92
2022/05/10 05:49:15;;;;;;;19.20;10.33;;;;;;;10.18;72.19;99249.16;4836921;29;20221;-92
2022/05/10 05:58:34;;;;;;;15.77;9.40;;;;;;;10.19;69.74;99167.44;5042234;23;20235;-92
2022/05/10 06:01:43;;;;;;;15.37;9.00;;;;;;;10.73;68.31;99230.41;4885623;29;20531;-91
2022/05/10 06:12:09;;;;;;;13.33;8.10;;;;;;;11.47;60.03;99257.78;5002385;28;20250;-87
2022/05/10 06:14:38;;;;;;;12.30;6.93;;;;;;;13.65;58.12;99590.84;4991752;28;20183;-91
2022/05/10 06:17:22;;;;;;;17.70;8.60;;;;;;;15.46;58.53;99882.34;4948181;29;20197;-92
2022/05/10 06:19:47;;;;;;;12.50;6.60;;;;;;;12.51;57.17;99316.56;4930056;29;20649;-92
2022/05/10 06:22:54;;;;;;;12.43;6.27;;;;;;;12.14;55.78;99259.44;4945112;29;20223;-93
2022/05/10 06:25:24;;;;;;;11.43;6.10;;;;;;;13.64;55.43;99431.38;4927477;29;20196;-92
2022/05/10 06:27:52;;;;;;;8.27;5.60;;;;;;;16.17;55.10;99863.22;4919276;29;20197;-90
2022/05/10 06:30:24;;;;;;;8.07;5.33;;;;;;;12.01;54.98;99206.53;4946396;29;20188;-93
2022/05/10 06:33:44;;;;;;;12.40;5.77;;;;;;;14.37;53.87;99499.03;4935396;29;20221;-90
2022/05/10 06:36:34;;;;;;;11.57;5.50;;;;;;;13.23;53.02;99292.75;4896172;29;20234;-89
2022/05/10 06:38:59;;;;;;;14.37;7.47;;;;;;;15.74;52.87;99683.25;4913119;29;20227;-90
2022/05/10 06:41:25;;;;;;;13.97;7.57;;;;;;;13.26;52.99;99267.44;4910681;29;20193;-91
2022/05/10 06:43:51;;;;;;;11.87;5.40;;;;;;;14.93;52.41;99532.97;4891813;29;20215;-89
2022/05/10 06:46:20;;;;;;;11.13;5.50;;;;;;;14.25;51.25;99330.59;4896442;29;20213;-89
2022/05/10 06:48:49;;;;;;;13.63;5.67;;;;;;;15.11;50.63;99421.28;4920431;29;20201;-91
2022/05/10 06:51:25;;;;;;;11.23;5.20;;;;;;;15.71;49.14;99519.81;4952409;29;20193;-90
2022/05/10 06:53:55;;;;;;;11.13;5.03;;;;;;;16.79;49.31;99643.38;4990940;23;20200;-89
2022/05/10 06:56:22;;;;;;;9.90;5.40;;;;;;;16.21;49.85;99584.03;5012507;28;20241;-89
2022/05/10 07:01:21;;;;;;;9.30;5.77;;;;;;;17.73;50.25;99867.34;5011571;28;20758;-92
2022/05/10 07:04:05;;;;;;;7.83;5.10;;;;;;;14.07;49.89;99253.69;4995637;28;20215;-91
2022/05/10 07:06:36;;;;;;;10.13;5.10;;;;;;;13.35;50.21;99136.34;4971634;28;20196;-93
2022/05/10 07:09:02;;;;;;;9.50;4.90;;;;;;;14.63;50.70;99337.63;4952872;29;20283;-90
2022/05/10 07:11:36;;;;;;;10.63;5.10;;;;;;;14.73;48.61;99245.28;4968071;29;20188;-90
2022/05/10 07:14:05;;;;;;;11.23;5.00;;;;;;;14.70;48.70;99296.19;4951971;29;20191;-93
2022/05/10 07:16:30;;;;;;;6.63;4.10;;;;;;;15.28;48.31;99325.66;4971049;28;20192;-90
2022/05/10 07:18:57;;;;;;;9.60;4.43;;;;;;;14.77;49.17;99292.13;4950469;29;20207;-90
2022/05/10 07:21:25;;;;;;;8.80;4.17;;;;;;;16.04;48.51;99481.44;4966999;29;20503;-92
2022/05/10 07:23:57;;;;;;;5.80;3.77;;;;;;;17.34;47.77;99640.31;4952166;29;20302;-88
2022/05/10 07:26:30;;;;;;;9.80;4.90;;;;;;;18.95;47.06;99858.75;4956299;29;20200;-90
2022/05/10 07:29:25;;;;;;;7.40;3.87;;;;;;;14.99;47.56;99311.34;4895028;29;20207;-91
2022/05/10 07:31:53;;;;;;;8.43;4.40;;;;;;;15.07;47.39;99285.22;4952840;23;20268;-92
2022/05/10 07:34:18;;;;;;;11.80;4.70;;;;;;;16.91;46.60;99545.63;5012266;28;20190;-90
2022/05/10 07:36:44;;;;;;;8.43;4.43;;;;;;;16.89;47.05;99549.84;5000762;28;20302;-89
2022/05/10 07:39:17;;;;;;;12.87;4.43;;;;;;;14.94;47.35;99233.91;5023407;28;20250;-90
2022/05/10 07:41:43;;;;;;;5.67;3.90;;;;;;;18.04;46.07;99626.34;5011242;28;20202;-91
2022/05/10 07:44:15;;;;;;;9.00;4.00;;;;;;;15.83;44.49;99205.25;5005849;28;20199;-88
2022/05/10 07:46:43;;;;;;;5.70;3.70;;;;;;;17.16;43.41;99332.94;5010449;28;20203;-91
2022/05/10 07:49:24;;;;;;;11.37;4.10;;;;;;;20.79;42.03;99863.09;5026716;28;20170;-91
2022/05/10 07:51:57;;;;;;;11.70;4.23;;;;;;;17.08;42.32;99232.19;5012127;28;20203;-90
2022/05/10 07:54:28;;;;;;;8.53;4.30;;;;;;;17.65;41.94;99311.53;4989481;28;20215;-91
2022/05/10 07:56:54;;;;;;;11.70;4.70;;;;;;;17.74;40.88;99278.38;4975739;28;20204;-91
2022/05/10 07:59:38;;;;;;;12.53;4.87;;;;;;;17.72;41.58;99305.66;4975245;28;20192;-88
2022/05/10 08:02:07;;;;;;;6.33;3.80;;;;;;;18.05;39.88;99270.22;4971968;28;20759;-93
2022/05/10 08:04:39;;;;;;;8.20;3.60;;;;;;;21.60;39.75;99865.53;4972141;28;20192;-87
2022/05/10 08:07:06;;;;;;;7.80;3.67;;;;;;;21.36;39.38;99873.94;4972494;28;20193;-90
2022/05/10 08:09:36;;;;;;;9.67;3.60;;;;;;;18.32;39.42;99317.53;4973729;28;20200;-90
2022/05/10 08:12:02;;;;;;;7.43;3.40;;;;;;;18.59;39.19;99322.97;4915946;29;20206;-91
2022/05/10 08:14:31;;;;;;;8.37;3.70;;;;;;;18.50;38.46;99276.72;4916725;29;20261;-89
2022/05/10 08:17:00;;;;;;;9.87;3.50;;;;;;;18.87;38.69;99304.44;4901697;29;20203;-88
2022/05/10 08:19:32;;;;;;;8.43;3.73;;;;;;;19.00;37.96;99301.16;4897944;29;20195;-92
2022/05/10 08:22:07;;;;;;;8.00;3.30;;;;;;;18.52;38.65;99259.66;4898992;29;20203;-91
2022/05/10 08:25:02;;;;;;;5.47;3.40;;;;;;;18.79;38.44;99229.97;4890967;29;20198;-90
2022/05/10 08:27:48;;;;;;;8.13;4.00;;;;;;;19.44;37.94;99316.91;4920065;29;20204;-92
2022/05/10 08:30:17;;;;;;;6.93;3.63;;;;;;;22.75;37.46;99868.69;4918724;29;20186;-88
2022/05/10 08:32:48;;;;;;;7.73;3.87;;;;;;;19.53;37.06;99270.72;4915681;29;20238;-91
2022/05/10 08:38:31;;;;;;;7.60;3.80;;;;;;;22.71;37.72;99851.47;4969840;23;20301;-91
2022/05/10 08:41:41;;;;;;;8.57;3.97;;;;;;;20.67;36.29;99452.13;5017753;28;20256;-92
2022/05/10 08:44:31;;;;;;;7.23;3.93;;;;;;;22.34;36.72;99724.06;4987479;28;20223;-89
2022/05/10 08:47:00;;;;;;;9.97;4.10;;;;;;;21.58;37.17;99600.13;4966802;28;20208;-91
2022/05/10 08:49:53;;;;;;;7.67;4.27;;;;;;;22.91;36.95;99850.66;4948591;29;20200;-88
2022/05/10 08:52:24;;;;;;;8.10;4.50;;;;;;;21.27;36.82;99551.06;4970473;28;20232;-90
2022/05/10 08:54:50;;;;;;;11.20;4.43;;;;;;;19.35;37.08;99209.84;4966215;29;20192;-89
2022/05/10 08:57:57;;;;;;;9.73;4.60;;;;;;;23.67;35.96;99848.09;4970243;28;20201;-91
2022/05/10 09:00:39;;;;;;;12.23;4.27;;;;;;;24.09;35.66;99841.94;4950339;29;20257;-89
2022/05/10 09:03:34;;;;;;;8.23;3.87;;;;;;;24.51;34.98;99864.19;4952157;29;20224;-88
2022/05/10 09:06:11;;;;;;;16.37;4.00;;;;;;;22.81;34.33;99588.16;4949164;28;20223;-88
2022/05/10 09:08:45;;;;;;;6.47;3.60;;;;;;;24.43;33.55;99840.94;4950734;29;20208;-88
2022/05/10 09:11:14;;;;;;;6.37;3.43;;;;;;;21.83;33.29;99404.25;4958454;28;20188;-89
2022/05/10 09:13:42;;;;;;;9.33;3.43;;;;;;;24.05;33.74;99835.91;4981886;28;20196;-91
2022/05/10 09:16:23;;;;;;;6.30;3.00;;;;;;;20.83;33.50;99275.47;4993914;28;20203;-90
2022/05/10 09:22:11;;;;;;;;;;;;;;;;;;;;;
2022/05/10 09:37:12;;;;;;;8.20;3.30;;;;;;;24.12;30.45;99820.41;4974135;28;20255;-90
2022/05/10 09:39:51;;;;;;;7.30;3.30;;;;;;;21.01;31.22;99254.91;4951338;29;20208;-89
2022/05/10 09:42:41;;;;;;;8.00;3.57;;;;;;;23.12;31.88;99575.13;4952120;29;20201;-90
2022/05/10 09:45:30;;;;;;;10.07;3.60;;;;;;;23.73;30.59;99646.41;4945525;29;20197;-89
2022/05/10 09:48:13;;;;;;;6.60;3.13;;;;;;;23.47;29.75;99625.84;5087146;22;20252;-92
2022/05/10 09:50:42;;;;;;;4.23;2.70;;;;;;;22.04;28.10;99350.09;5052528;28;20185;-90
2022/05/10 09:53:33;;;;;;;4.77;3.00;;;;;;;21.47;27.95;99261.75;5008813;28;20199;-90
2022/05/10 09:56:04;;;;;;;5.03;2.70;;;;;;;24.13;28.78;99820.38;5006895;28;20199;-90
2022/05/10 09:58:41;;;;;;;6.83;2.60;;;;;;;23.29;29.09;99666.38;4993088;28;20688;-90
2022/05/10 10:01:13;;;;;;;4.93;2.90;;;;;;;21.75;29.46;99376.75;4990390;28;20195;-90
2022/05/10 10:03:42;;;;;;;6.47;3.93;;;;;;;21.95;28.85;99368.19;5007645;28;20207;-90
2022/05/10 10:06:23;;;;;;;6.33;2.77;;;;;;;21.17;29.82;99261.78;5007083;28;20194;-89
2022/05/10 10:08:57;;;;;;;4.83;2.50;;;;;;;22.11;28.94;99350.06;5004095;28;20194;-90
2022/05/10 10:11:33;;;;;;;6.07;2.57;;;;;;;21.31;28.43;99167.34;5005145;28;20226;-89
2022/05/10 10:14:38;;;;;;;4.13;2.40;;;;;;;24.77;27.99;99781.19;4993208;28;20199;-90
2022/05/10 10:17:05;;;;;;;4.07;2.20;;;;;;;21.46;26.65;99234.25;4912579;29;20215;-89
2022/05/10 10:19:38;;;;;;;3.23;2.10;;;;;;;21.93;26.22;99282.25;4911502;29;20214;-88
2022/05/10 10:22:13;;;;;;;3.20;2.00;;;;;;;23.58;25.98;99465.50;4901869;29;20201;-88
2022/05/10 10:24:58;;;;;;;5.10;2.10;;;;;;;24.00;26.57;99565.19;4906238;29;20226;-89
2022/05/10 10:27:41;;;;;;;5.30;2.10;;;;;;;21.88;25.89;99222.13;4904586;29;20190;-88
2022/05/10 10:30:36;;;;;;;4.50;2.10;;;;;;;23.06;26.42;99510.59;4937688;28;20250;-90
2022/05/10 10:33:11;;;;;;;3.70;2.10;;;;;;;21.93;26.07;99362.16;4908019;29;20593;-89
2022/05/10 10:35:50;;;;;;;4.73;1.80;;;;;;;22.73;25.36;99434.13;4907593;29;20201;-89
2022/05/10 10:38:26;;;;;;;5.03;1.87;;;;;;;21.06;25.35;99166.53;4900247;29;20261;-89
2022/05/10 10:40:57;;;;;;;3.87;2.20;;;;;;;24.44;25.73;99782.25;4941045;29;20202;-88
2022/05/10 10:43:34;;;;;;;4.27;2.17;;;;;;;20.60;26.98;99147.69;4951431;29;20340;-87
2022/05/10 10:46:25;;;;;;;3.73;2.13;;;;;;;24.53;25.54;99748.56;4934710;29;20193;-89
2022/05/10 10:49:36;;;;;;;3.27;2.20;;;;;;;24.35;26.69;99746.06;4934124;29;20185;-92
2022/05/10 10:52:02;;;;;;;4.10;2.00;;;;;;;24.32;25.55;99738.31;4873254;29;20255;-89
2022/05/10 10:54:30;;;;;;;4.60;1.90;;;;;;;21.33;26.08;99173.34;4856802;29;20224;-87
2022/05/10 10:57:35;;;;;;;3.73;1.90;;;;;;;21.76;26.08;99264.22;4873333;29;20203;-90
2022/05/10 11:00:10;;;;;;;3.30;2.00;;;;;;;20.98;26.41;99211.16;4868570;29;20463;-87
2022/05/10 11:02:44;;;;;;;2.90;1.90;;;;;;;24.36;25.86;99745.22;4873318;29;20227;-88
2022/05/10 11:05:29;;;;;;;3.77;1.93;;;;;;;24.43;26.19;99733.94;4901554;29;20290;-89
2022/05/10 11:08:08;;;;;;;2.40;1.97;;;;;;;24.60;26.68;99726.91;4906570;29;20210;-89
2022/05/10 11:10:53;;;;;;;4.40;2.17;;;;;;;23.05;27.34;99444.28;4922722;29;20259;-88
2022/05/10 11:13:27;;;;;;;3.00;2.20;;;;;;;23.15;27.11;99479.56;4894196;29;20202;-89
2022/05/10 11:16:14;;;;;;;3.00;1.90;;;;;;;21.44;26.19;99264.31;4907572;29;20209;-89
2022/05/10 11:19:11;;;;;;;4.30;2.10;;;;;;;24.35;27.36;99715.88;4912648;29;20244;-88
2022/05/10 11:22:13;;;;;;;4.63;2.53;;;;;;;21.61;26.82;99190.44;4980228;28;20189;-89
2022/05/10 11:24:55;;;;;;;4.23;2.00;;;;;;;23.91;25.22;99395.41;5044089;28;20254;-89
2022/05/10 11:27:42;;;;;;;3.70;2.10;;;;;;;26.18;23.99;99731.31;5046086;28;20196;-90
2022/05/10 11:30:10;;;;;;;5.10;1.90;;;;;;;27.00;22.66;99714.50;5036770;28;20189;-89
2022/05/10 11:32:54;;;;;;;2.35;1.73;;;;;;;27.24;23.57;99699.31;5036418;28;20188;-87
2022/05/10 11:35:32;;;;;;;3.85;2.00;;;;;;;28.12;23.75;99704.47;5049773;28;20186;-90
2022/05/10 11:38:07;;;;;;;2.58;2.08;;;;;;;25.89;23.32;99241.34;5024712;28;20327;-90
2022/05/10 11:40:39;;;;;;;3.58;1.90;;;;;;;28.72;22.49;99708.25;5052337;28;20199;-89
2022/05/10 11:43:36;;;;;;;4.07;2.00;;;;;;;28.52;22.32;99697.44;5046284;28;20288;-88
2022/05/10 11:46:08;;;;;;;3.20;1.90;;;;;;;25.51;22.15;99242.13;5030622;28;20228;-88
2022/05/10 11:48:58;;;;;;;2.97;1.90;;;;;;;27.93;21.17;99693.59;5012037;28;20230;-88
2022/05/10 11:51:50;;;;;;;3.90;1.80;;;;;;;28.28;20.68;99683.25;5011252;28;20256;-91
2022/05/10 11:54:31;;;;;;;3.97;1.90;;;;;;;28.13;21.73;99688.78;5038041;28;20200;-94
2022/05/10 11:57:00;;;;;;;3.00;1.55;;;;;;;25.87;21.34;99205.97;5051458;28;20189;-88
2022/05/10 11:59:31;;;;;;;2.65;1.73;;;;;;;27.34;19.51;99419.13;5032181;28;20188;-90
2022/05/10 12:01:59;;;;;;;1.63;1.50;;;;;;;29.35;19.38;99695.31;5032518;28;20290;-90
2022/05/10 12:04:45;;;;;;;2.42;1.80;;;;;;;26.13;20.30;99253.84;5031696;28;20247;-91
2022/05/10 12:07:19;;;;;;;2.80;1.83;;;;;;;29.36;20.24;99668.34;5052452;28;20193;-91
2022/05/10 12:10:05;;;;;;;3.33;1.70;;;;;;;29.76;19.98;99668.88;5033462;28;20193;-90
2022/05/10 12:12:33;;;;;;;4.95;1.80;;;;;;;29.91;19.81;99554.47;5031256;28;20209;-88
2022/05/10 12:24:11;;;;;;;3.92;1.80;;;;;;;30.98;17.86;99633.63;5056577;28;20607;-91
2022/05/10 12:26:45;;;;;;;3.78;1.80;;;;;;;29.12;17.81;99275.19;5045461;28;20283;-90
2022/05/10 12:29:35;;;;;;;3.47;2.30;;;;;;;31.89;17.57;99634.53;5035085;28;20181;-91
2022/05/10 12:32:20;;;;;;;3.95;1.90;;;;;;;32.05;17.33;99632.22;5024574;28;20303;-93
2022/05/10 12:34:53;;;;;;;2.72;1.58;;;;;;;31.01;16.75;99576.84;5021447;28;20271;-90
2022/05/10 12:37:22;;;;;;;3.15;2.00;;;;;;;31.60;16.91;99616.50;5008913;28;20282;-91
2022/05/10 12:39:54;;;;;;;3.25;1.67;;;;;;;29.29;17.62;99296.38;5020532;28;20193;-91
2022/05/10 12:42:58;;;;;;;4.63;2.03;;;;;;;30.62;17.34;99499.78;5021973;28;20264;-90
2022/05/10 12:46:01;;;;;;;9.35;2.17;;;;;;;31.35;17.72;99599.97;4958937;29;20209;-91
2022/05/10 12:48:59;;;;;;;4.13;1.92;;;;;;;31.31;17.67;99601.88;4946338;29;20224;-90
2022/05/10 12:51:32;;;;;;;2.30;1.88;;;;;;;31.52;17.76;99595.00;4951632;29;20184;-91
2022/05/10 12:54:04;;;;;;;4.82;1.90;;;;;;;30.42;17.23;99324.56;4957964;28;20188;-91
2022/05/10 12:56:37;;;;;;;6.78;2.55;;;;;;;29.64;17.43;99144.66;4972919;28;20556;-92
2022/05/10 12:59:27;;;;;;;3.00;1.70;;;;;;;31.72;17.37;99586.38;4975310;28;21110;-92
2022/05/10 13:01:56;;;;;;;8.20;2.58;;;;;;;30.43;17.54;99334.97;4972465;28;20267;-89
2022/05/10 13:04:26;;;;;;;3.20;2.40;;;;;;;32.45;17.63;99582.47;4979332;28;20191;-80
2022/05/10 13:07:03;;;;;;;3.50;1.83;;;;;;;32.86;17.26;99579.84;4999034;28;20183;-81
2022/05/10 13:09:30;;;;;;;3.72;1.90;;;;;;;32.98;17.37;99580.19;4999446;28;20420;-81
2022/05/10 13:11:58;;;;;;;2.90;2.22;;;;;;;32.65;17.65;99576.41;5001136;28;20191;-80
2022/05/10 13:14:26;;;;;;;4.25;1.95;;;;;;;33.12;17.16;99553.34;4992732;28;20187;-80
2022/05/10 13:16:54;;;;;;;3.97;2.17;;;;;;;33.11;17.28;99568.22;4979784;28;20981;-80
2022/05/10 13:19:22;;;;;;;5.68;2.08;;;;;;;32.66;18.35;99573.72;4976022;28;20651;-78
2022/05/10 13:21:48;;;;;;;3.38;2.10;;;;;;;32.24;18.64;99519.63;4987122;28;20199;-79
2022/05/10 13:24:17;;;;;;;2.45;1.83;;;;;;;33.03;17.96;99566.84;5003800;28;20214;-80
2022/05/10 13:27:00;;;;;;;3.75;2.22;;;;;;;33.64;17.92;99560.53;4993223;28;20183;-80
2022/05/10 13:29:45;;;;;;;4.00;2.25;;;;;;;34.29;18.08;99554.69;5013261;28;20218;-79
2022/05/10 13:32:42;;;;;;;3.55;2.10;;;;;;;34.65;17.95;99559.00;5012565;28;20182;-80
2022/05/10 13:35:11;;;;;;;5.35;2.40;;;;;;;34.16;17.94;99556.22;5011671;28;20198;-79
2022/05/10 13:37:40;;;;;;;3.63;1.92;;;;;;;34.10;17.63;99511.84;5004141;28;20182;-79
2022/05/10 13:40:23;;;;;;;3.25;2.00;;;;;;;35.12;17.03;99552.13;5012361;28;20179;-80
2022/05/10 13:42:50;;;;;;;3.17;2.30;;;;;;;35.30;17.33;99548.47;5015497;28;20194;-79
2022/05/10 13:45:22;;;;;;;4.15;2.17;;;;;;;35.80;17.04;99540.41;5013888;28;20197;-79
2022/05/10 13:47:50;;;;;;;5.47;2.30;;;;;;;35.67;16.77;99557.00;5040161;28;20225;-79
2022/05/10 13:50:25;;;;;;;4.68;2.20;;;;;;;33.81;18.01;99494.88;5056715;28;20200;-78
2022/05/10 13:52:57;;;;;;;3.40;2.40;;;;;;;34.87;17.91;99542.03;5065014;28;20185;-79
2022/05/10 13:55:25;;;;;;;5.57;2.10;;;;;;;35.59;17.10;99503.88;5044608;28;20174;-80
2022/05/10 13:57:59;;;;;;;3.28;2.00;;;;;;;35.27;17.02;99543.38;5043579;28;20201;-79
2022/05/10 14:00:31;;;;;;;3.30;2.08;;;;;;;36.02;16.76;99548.81;5049642;28;20184;-79
2022/05/10 14:02:58;;;;;;;3.85;1.90;;;;;;;33.80;17.62;99534.34;5049437;28;20307;-79
2022/05/10 14:05:25;;;;;;;3.33;2.10;;;;;;;33.88;17.81;99526.94;5032757;28;20708;-80
2022/05/10 14:08:04;;;;;;;4.53;2.13;;;;;;;35.45;17.44;99539.72;5031323;28;20182;-81
2022/05/10 14:10:36;;;;;;;5.18;2.20;;;;;;;35.46;17.12;99537.94;5032228;28;20217;-79
2022/05/10 14:13:04;;;;;;;5.07;1.92;;;;;;;34.71;16.48;99488.50;5030417;28;20671;-80
2022/05/10 14:15:38;;;;;;;4.35;2.00;;;;;;;33.72;17.15;99531.25;5030805;28;20190;-81
2022/05/10 14:18:09;;;;;;;2.60;1.92;;;;;;;33.63;17.00;99527.28;5040784;28;20173;-90
2022/05/10 14:20:44;;;;;;;3.53;1.83;;;;;;;33.70;16.18;99359.75;5049639;28;20181;-89
2022/05/10 14:23:16;;;;;;;5.47;2.13;;;;;;;34.09;16.04;99477.78;5027541;28;20611;-90
2022/05/10 14:26:00;;;;;;;2.28;1.70;;;;;;;31.49;17.65;99527.91;4992884;28;20203;-91
2022/05/10 14:28:36;;;;;;;5.70;1.90;;;;;;;29.66;18.55;99523.91;5029648;28;20210;-90
2022/05/10 14:31:15;;;;;;;4.45;1.80;;;;;;;28.75;19.40;99524.88;5014203;28;20188;-91
2022/05/10 14:33:45;;;;;;;3.35;1.90;;;;;;;28.29;20.50;99512.22;5012724;28;20211;-90
2022/05/10 14:36:23;;;;;;;3.38;1.63;;;;;;;25.50;20.96;99268.91;4988790;28;20192;-91
2022/05/10 14:38:49;;;;;;;8.50;2.03;;;;;;;23.58;21.27;98974.41;4991179;28;20378;-89